sensor_id;sensor_type;location;lat;lon;timestamp;P1;durP1;ratioP1;P2;durP2;ratioP2
49840;SDS011;35738;49.890;5.930;2023-05-16T00:01:31;6.75;;;4.78;;
49840;SDS011;35738;49.890;5.930;2023-05-16T00:03:58;4.85;;;4.05;;
49840;SDS011;35738;49.890;5.930;2023-05-16T00:06:25;6.70;;;4.60;;
49840;SDS011;35738;49.890;5.930;2023-05-16T00:08:51;7.78;;;4.60;;
49840;SDS011;35738;49.890;5.930;2023-05-16T00:11:18;6.80;;;4.00;;
49840;SDS011;35738;49.890;5.930;2023-05-16T00:13:44;6.30;;;4.30;;
49840;SDS011;35738;49.890;5.930;2023-05-16T00:16:12;6.80;;;4.80;;
49840;SDS011;35738;49.890;5.930;2023-05-16T00:18:40;8.07;;;5.00;;
49840;SDS011;35738;49.890;5.930;2023-05-16T00:21:06;10.98;;;5.70;;
49840;SDS011;35738;49.890;5.930;2023-05-16T00:23:33;7.82;;;4.82;;
49840;SDS011;35738;49.890;5.930;2023-05-16T00:25:59;9.10;;;4.72;;
49840;SDS011;35738;49.890;5.930;2023-05-16T00:28:26;7.38;;;5.18;;
49840;SDS011;35738;49.890;5.930;2023-05-16T00:30:53;8.52;;;4.90;;
49840;SDS011;35738;49.890;5.930;2023-05-16T00:33:19;6.28;;;4.38;;
49840;SDS011;35738;49.890;5.930;2023-05-16T00:35:46;10.18;;;4.75;;
49840;SDS011;35738;49.890;5.930;2023-05-16T00:38:12;7.95;;;4.95;;
49840;SDS011;35738;49.890;5.930;2023-05-16T00:40:39;10.65;;;5.20;;
49840;SDS011;35738;49.890;5.930;2023-05-16T00:43:05;8.68;;;5.18;;
49840;SDS011;35738;49.890;5.930;2023-05-16T00:45:32;8.55;;;4.63;;
49840;SDS011;35738;49.890;5.930;2023-05-16T00:47:58;9.65;;;5.40;;
49840;SDS011;35738;49.890;5.930;2023-05-16T00:50:25;10.45;;;5.45;;
49840;SDS011;35738;49.890;5.930;2023-05-16T00:52:52;10.07;;;5.82;;
49840;SDS011;35738;49.890;5.930;2023-05-16T00:55:18;9.93;;;5.15;;
49840;SDS011;35738;49.890;5.930;2023-05-16T00:57:47;7.72;;;4.90;;
49840;SDS011;35738;49.890;5.930;2023-05-16T01:00:14;9.60;;;5.63;;
49840;SDS011;35738;49.890;5.930;2023-05-16T01:02:41;9.68;;;5.40;;
49840;SDS011;35738;49.890;5.930;2023-05-16T01:05:08;9.45;;;5.45;;
49840;SDS011;35738;49.890;5.930;2023-05-16T01:07:35;11.25;;;5.65;;
49840;SDS011;35738;49.890;5.930;2023-05-16T01:10:02;11.45;;;5.80;;
49840;SDS011;35738;49.890;5.930;2023-05-16T01:20:44;9.27;;;5.38;;
49840;SDS011;35738;49.890;5.930;2023-05-16T01:26:20;7.93;;;5.28;;
49840;SDS011;35738;49.890;5.930;2023-05-16T01:28:49;8.57;;;5.40;;
49840;SDS011;35738;49.890;5.930;2023-05-16T01:31:17;7.93;;;4.82;;
49840;SDS011;35738;49.890;5.930;2023-05-16T01:33:44;11.13;;;6.00;;
49840;SDS011;35738;49.890;5.930;2023-05-16T01:47:19;9.60;;;5.45;;
49840;SDS011;35738;49.890;5.930;2023-05-16T01:52:36;11.32;;;5.00;;
49840;SDS011;35738;49.890;5.930;2023-05-16T01:55:13;7.85;;;5.10;;
49840;SDS011;35738;49.890;5.930;2023-05-16T01:57:44;7.50;;;4.78;;
49840;SDS011;35738;49.890;5.930;2023-05-16T02:00:11;6.47;;;4.80;;
49840;SDS011;35738;49.890;5.930;2023-05-16T02:02:38;9.13;;;4.97;;
49840;SDS011;35738;49.890;5.930;2023-05-16T02:05:05;7.60;;;4.90;;
49840;SDS011;35738;49.890;5.930;2023-05-16T02:07:32;5.75;;;4.78;;
49840;SDS011;35738;49.890;5.930;2023-05-16T02:09:59;4.95;;;4.43;;
49840;SDS011;35738;49.890;5.930;2023-05-16T02:12:25;7.30;;;4.65;;
49840;SDS011;35738;49.890;5.930;2023-05-16T02:14:52;9.23;;;4.85;;
49840;SDS011;35738;49.890;5.930;2023-05-16T02:17:18;4.43;;;4.00;;
49840;SDS011;35738;49.890;5.930;2023-05-16T02:19:45;6.78;;;4.68;;
49840;SDS011;35738;49.890;5.930;2023-05-16T02:22:11;6.20;;;4.40;;
49840;SDS011;35738;49.890;5.930;2023-05-16T02:24:38;5.78;;;3.88;;
49840;SDS011;35738;49.890;5.930;2023-05-16T02:27:04;4.30;;;3.80;;
49840;SDS011;35738;49.890;5.930;2023-05-16T02:29:31;8.68;;;4.10;;
49840;SDS011;35738;49.890;5.930;2023-05-16T02:31:58;7.25;;;4.25;;
49840;SDS011;35738;49.890;5.930;2023-05-16T02:34:25;6.88;;;4.43;;
49840;SDS011;35738;49.890;5.930;2023-05-16T02:36:51;7.68;;;4.45;;
49840;SDS011;35738;49.890;5.930;2023-05-16T02:39:18;6.57;;;4.60;;
49840;SDS011;35738;49.890;5.930;2023-05-16T02:41:44;7.38;;;4.55;;
49840;SDS011;35738;49.890;5.930;2023-05-16T02:44:11;6.40;;;5.18;;
49840;SDS011;35738;49.890;5.930;2023-05-16T02:46:37;6.80;;;4.57;;
49840;SDS011;35738;49.890;5.930;2023-05-16T02:49:04;7.60;;;5.05;;
49840;SDS011;35738;49.890;5.930;2023-05-16T02:51:30;6.57;;;4.80;;
49840;SDS011;35738;49.890;5.930;2023-05-16T02:53:57;10.32;;;5.20;;
49840;SDS011;35738;49.890;5.930;2023-05-16T02:56:28;8.13;;;4.50;;
49840;SDS011;35738;49.890;5.930;2023-05-16T02:58:55;8.57;;;4.75;;
49840;SDS011;35738;49.890;5.930;2023-05-16T03:01:22;10.25;;;4.70;;
49840;SDS011;35738;49.890;5.930;2023-05-16T03:03:48;8.48;;;5.22;;
49840;SDS011;35738;49.890;5.930;2023-05-16T03:06:15;8.88;;;5.18;;
49840;SDS011;35738;49.890;5.930;2023-05-16T03:08:42;18.60;;;6.95;;
49840;SDS011;35738;49.890;5.930;2023-05-16T03:11:08;15.98;;;6.50;;
49840;SDS011;35738;49.890;5.930;2023-05-16T03:13:35;12.82;;;6.65;;
49840;SDS011;35738;49.890;5.930;2023-05-16T03:16:02;11.73;;;7.18;;
49840;SDS011;35738;49.890;5.930;2023-05-16T03:18:29;14.85;;;6.85;;
49840;SDS011;35738;49.890;5.930;2023-05-16T03:20:56;13.25;;;7.15;;
49840;SDS011;35738;49.890;5.930;2023-05-16T03:23:23;11.93;;;6.57;;
49840;SDS011;35738;49.890;5.930;2023-05-16T03:25:50;12.60;;;6.53;;
49840;SDS011;35738;49.890;5.930;2023-05-16T03:28:16;16.10;;;6.60;;
49840;SDS011;35738;49.890;5.930;2023-05-16T03:30:43;15.25;;;6.90;;
49840;SDS011;35738;49.890;5.930;2023-05-16T03:33:10;15.20;;;6.30;;
49840;SDS011;35738;49.890;5.930;2023-05-16T03:35:37;11.73;;;5.57;;
49840;SDS011;35738;49.890;5.930;2023-05-16T04:12:02;10.07;;;2.92;;
49840;SDS011;35738;49.890;5.930;2023-05-16T04:14:29;10.73;;;3.22;;
49840;SDS011;35738;49.890;5.930;2023-05-16T04:16:56;8.70;;;3.10;;
49840;SDS011;35738;49.890;5.930;2023-05-16T04:19:22;13.68;;;3.03;;
49840;SDS011;35738;49.890;5.930;2023-05-16T04:21:49;12.15;;;3.38;;
49840;SDS011;35738;49.890;5.930;2023-05-16T04:24:15;10.15;;;2.92;;
49840;SDS011;35738;49.890;5.930;2023-05-16T04:26:42;13.77;;;3.30;;
49840;SDS011;35738;49.890;5.930;2023-05-16T04:29:08;11.93;;;3.08;;
49840;SDS011;35738;49.890;5.930;2023-05-16T04:31:36;11.50;;;2.83;;
49840;SDS011;35738;49.890;5.930;2023-05-16T04:34:03;9.75;;;3.22;;
49840;SDS011;35738;49.890;5.930;2023-05-16T04:36:31;18.30;;;3.57;;
49840;SDS011;35738;49.890;5.930;2023-05-16T04:38:58;10.87;;;2.93;;
49840;SDS011;35738;49.890;5.930;2023-05-16T04:41:25;9.83;;;2.80;;
49840;SDS011;35738;49.890;5.930;2023-05-16T04:43:52;9.52;;;3.00;;
49840;SDS011;35738;49.890;5.930;2023-05-16T04:46:19;11.43;;;3.15;;
49840;SDS011;35738;49.890;5.930;2023-05-16T04:48:46;10.25;;;3.05;;
49840;SDS011;35738;49.890;5.930;2023-05-16T04:51:12;10.70;;;2.43;;
49840;SDS011;35738;49.890;5.930;2023-05-16T04:53:39;9.13;;;2.97;;
49840;SDS011;35738;49.890;5.930;2023-05-16T04:56:10;8.45;;;2.50;;
49840;SDS011;35738;49.890;5.930;2023-05-16T04:58:38;7.35;;;2.95;;
49840;SDS011;35738;49.890;5.930;2023-05-16T05:01:07;9.02;;;2.50;;
49840;SDS011;35738;49.890;5.930;2023-05-16T05:03:34;8.18;;;2.78;;
49840;SDS011;35738;49.890;5.930;2023-05-16T05:06:01;13.60;;;2.55;;
49840;SDS011;35738;49.890;5.930;2023-05-16T05:08:28;10.88;;;2.80;;
49840;SDS011;35738;49.890;5.930;2023-05-16T05:10:57;9.65;;;2.45;;
49840;SDS011;35738;49.890;5.930;2023-05-16T05:13:24;7.78;;;2.55;;
49840;SDS011;35738;49.890;5.930;2023-05-16T05:15:51;8.98;;;2.45;;
49840;SDS011;35738;49.890;5.930;2023-05-16T05:18:17;11.95;;;2.28;;
49840;SDS011;35738;49.890;5.930;2023-05-16T05:20:44;6.45;;;2.08;;
49840;SDS011;35738;49.890;5.930;2023-05-16T05:23:10;8.13;;;2.33;;
49840;SDS011;35738;49.890;5.930;2023-05-16T05:25:38;9.00;;;2.33;;
49840;SDS011;35738;49.890;5.930;2023-05-16T05:28:04;8.95;;;2.10;;
49840;SDS011;35738;49.890;5.930;2023-05-16T05:30:31;14.68;;;2.03;;
49840;SDS011;35738;49.890;5.930;2023-05-16T05:32:57;7.43;;;2.00;;
49840;SDS011;35738;49.890;5.930;2023-05-16T05:35:24;7.25;;;2.05;;
49840;SDS011;35738;49.890;5.930;2023-05-16T05:37:51;6.50;;;1.92;;
49840;SDS011;35738;49.890;5.930;2023-05-16T05:40:18;8.30;;;2.13;;
49840;SDS011;35738;49.890;5.930;2023-05-16T05:42:44;9.60;;;1.80;;
49840;SDS011;35738;49.890;5.930;2023-05-16T05:45:13;9.65;;;2.40;;
49840;SDS011;35738;49.890;5.930;2023-05-16T05:47:40;8.13;;;2.00;;
49840;SDS011;35738;49.890;5.930;2023-05-16T05:50:08;7.50;;;2.03;;
49840;SDS011;35738;49.890;5.930;2023-05-16T05:52:36;8.63;;;1.92;;
49840;SDS011;35738;49.890;5.930;2023-05-16T05:55:04;10.48;;;1.98;;
49840;SDS011;35738;49.890;5.930;2023-05-16T05:57:30;8.48;;;2.50;;
49840;SDS011;35738;49.890;5.930;2023-05-16T05:59:57;7.72;;;2.20;;
49840;SDS011;35738;49.890;5.930;2023-05-16T06:02:24;9.00;;;2.00;;
49840;SDS011;35738;49.890;5.930;2023-05-16T06:04:50;11.82;;;2.30;;
49840;SDS011;35738;49.890;5.930;2023-05-16T06:07:17;6.35;;;2.00;;
49840;SDS011;35738;49.890;5.930;2023-05-16T06:09:43;8.85;;;2.05;;
49840;SDS011;35738;49.890;5.930;2023-05-16T06:19:27;8.15;;;1.80;;
49840;SDS011;35738;49.890;5.930;2023-05-16T06:21:48;7.68;;;2.50;;
49840;SDS011;35738;49.890;5.930;2023-05-16T06:24:42;7.82;;;1.95;;
49840;SDS011;35738;49.890;5.930;2023-05-16T06:30:38;9.27;;;1.80;;
49840;SDS011;35738;49.890;5.930;2023-05-16T06:33:13;6.53;;;1.50;;
49840;SDS011;35738;49.890;5.930;2023-05-16T06:36:13;8.05;;;1.80;;
49840;SDS011;35738;49.890;5.930;2023-05-16T06:38:55;10.48;;;1.90;;
49840;SDS011;35738;49.890;5.930;2023-05-16T06:41:33;6.90;;;1.67;;
49840;SDS011;35738;49.890;5.930;2023-05-16T06:44:08;6.47;;;1.60;;
49840;SDS011;35738;49.890;5.930;2023-05-16T06:46:43;4.47;;;1.55;;
49840;SDS011;35738;49.890;5.930;2023-05-16T06:49:51;8.35;;;1.75;;
49840;SDS011;35738;49.890;5.930;2023-05-16T06:52:49;5.18;;;1.60;;
49840;SDS011;35738;49.890;5.930;2023-05-16T06:55:21;5.03;;;1.45;;
49840;SDS011;35738;49.890;5.930;2023-05-16T06:58:11;7.07;;;1.83;;
49840;SDS011;35738;49.890;5.930;2023-05-16T07:00:38;5.78;;;1.50;;
49840;SDS011;35738;49.890;5.930;2023-05-16T07:03:13;7.53;;;1.90;;
49840;SDS011;35738;49.890;5.930;2023-05-16T07:09:27;4.82;;;2.00;;
49840;SDS011;35738;49.890;5.930;2023-05-16T07:12:07;4.55;;;1.38;;
49840;SDS011;35738;49.890;5.930;2023-05-16T07:15:21;6.05;;;1.40;;
49840;SDS011;35738;49.890;5.930;2023-05-16T07:18:20;6.68;;;1.50;;
49840;SDS011;35738;49.890;5.930;2023-05-16T07:20:56;8.60;;;1.70;;
49840;SDS011;35738;49.890;5.930;2023-05-16T07:23:26;5.82;;;1.70;;
49840;SDS011;35738;49.890;5.930;2023-05-16T07:26:09;7.97;;;1.80;;
49840;SDS011;35738;49.890;5.930;2023-05-16T07:28:56;5.07;;;1.75;;
49840;SDS011;35738;49.890;5.930;2023-05-16T07:31:27;5.13;;;1.52;;
49840;SDS011;35738;49.890;5.930;2023-05-16T07:34:01;8.57;;;1.60;;
49840;SDS011;35738;49.890;5.930;2023-05-16T07:36:58;4.43;;;1.40;;
49840;SDS011;35738;49.890;5.930;2023-05-16T07:40:11;7.30;;;1.60;;
49840;SDS011;35738;49.890;5.930;2023-05-16T07:42:43;5.90;;;1.40;;
49840;SDS011;35738;49.890;5.930;2023-05-16T07:45:17;6.28;;;1.70;;
49840;SDS011;35738;49.890;5.930;2023-05-16T07:47:58;4.22;;;1.40;;
49840;SDS011;35738;49.890;5.930;2023-05-16T07:50:59;4.00;;;1.40;;
49840;SDS011;35738;49.890;5.930;2023-05-16T07:53:56;6.05;;;1.45;;
49840;SDS011;35738;49.890;5.930;2023-05-16T07:56:38;6.15;;;1.48;;
49840;SDS011;35738;49.890;5.930;2023-05-16T07:59:16;7.32;;;1.90;;
49840;SDS011;35738;49.890;5.930;2023-05-16T08:02:10;6.85;;;2.10;;
49840;SDS011;35738;49.890;5.930;2023-05-16T08:05:18;4.28;;;2.10;;
49840;SDS011;35738;49.890;5.930;2023-05-16T08:07:50;4.68;;;1.75;;
49840;SDS011;35738;49.890;5.930;2023-05-16T08:11:34;9.23;;;1.75;;
49840;SDS011;35738;49.890;5.930;2023-05-16T08:14:49;8.82;;;1.95;;
49840;SDS011;35738;49.890;5.930;2023-05-16T08:17:58;7.43;;;1.70;;
49840;SDS011;35738;49.890;5.930;2023-05-16T08:20:25;6.20;;;1.50;;
49840;SDS011;35738;49.890;5.930;2023-05-16T08:22:52;7.63;;;2.08;;
49840;SDS011;35738;49.890;5.930;2023-05-16T08:25:20;8.38;;;1.88;;
49840;SDS011;35738;49.890;5.930;2023-05-16T08:27:48;5.10;;;1.30;;
49840;SDS011;35738;49.890;5.930;2023-05-16T08:30:15;4.90;;;1.42;;
49840;SDS011;35738;49.890;5.930;2023-05-16T08:32:42;5.60;;;1.83;;
49840;SDS011;35738;49.890;5.930;2023-05-16T08:35:09;9.05;;;2.50;;
49840;SDS011;35738;49.890;5.930;2023-05-16T08:37:36;5.82;;;1.33;;
49840;SDS011;35738;49.890;5.930;2023-05-16T08:40:03;5.40;;;1.48;;
49840;SDS011;35738;49.890;5.930;2023-05-16T08:42:33;8.60;;;1.45;;
49840;SDS011;35738;49.890;5.930;2023-05-16T08:45:07;7.32;;;1.55;;
49840;SDS011;35738;49.890;5.930;2023-05-16T08:47:34;5.55;;;1.60;;
49840;SDS011;35738;49.890;5.930;2023-05-16T08:50:06;5.72;;;1.58;;
49840;SDS011;35738;49.890;5.930;2023-05-16T08:52:35;5.85;;;1.70;;
49840;SDS011;35738;49.890;5.930;2023-05-16T08:55:05;6.43;;;1.35;;
49840;SDS011;35738;49.890;5.930;2023-05-16T08:57:37;5.95;;;1.90;;
49840;SDS011;35738;49.890;5.930;2023-05-16T09:00:05;4.30;;;1.30;;
49840;SDS011;35738;49.890;5.930;2023-05-16T09:02:40;6.03;;;1.42;;
49840;SDS011;35738;49.890;5.930;2023-05-16T09:05:08;4.25;;;1.40;;
49840;SDS011;35738;49.890;5.930;2023-05-16T09:07:37;6.78;;;1.65;;
49840;SDS011;35738;49.890;5.930;2023-05-16T09:10:04;8.90;;;1.60;;
49840;SDS011;35738;49.890;5.930;2023-05-16T09:12:32;6.95;;;1.60;;
49840;SDS011;35738;49.890;5.930;2023-05-16T09:15:01;7.30;;;1.65;;
49840;SDS011;35738;49.890;5.930;2023-05-16T09:17:35;5.63;;;1.63;;
49840;SDS011;35738;49.890;5.930;2023-05-16T09:20:41;3.13;;;1.40;;
49840;SDS011;35738;49.890;5.930;2023-05-16T09:22:59;7.50;;;1.65;;
49840;SDS011;35738;49.890;5.930;2023-05-16T09:25:27;4.10;;;1.50;;
49840;SDS011;35738;49.890;5.930;2023-05-16T09:27:58;3.75;;;1.27;;
49840;SDS011;35738;49.890;5.930;2023-05-16T09:30:29;3.63;;;1.27;;
49840;SDS011;35738;49.890;5.930;2023-05-16T09:33:00;4.47;;;1.48;;
49840;SDS011;35738;49.890;5.930;2023-05-16T09:35:27;6.90;;;1.73;;
49840;SDS011;35738;49.890;5.930;2023-05-16T09:38:12;3.20;;;1.10;;
49840;SDS011;35738;49.890;5.930;2023-05-16T09:40:41;4.95;;;1.48;;
49840;SDS011;35738;49.890;5.930;2023-05-16T09:43:08;3.33;;;1.30;;
49840;SDS011;35738;49.890;5.930;2023-05-16T09:45:35;5.57;;;1.27;;
49840;SDS011;35738;49.890;5.930;2023-05-16T09:48:05;6.53;;;1.52;;
49840;SDS011;35738;49.890;5.930;2023-05-16T09:50:35;4.80;;;1.55;;
49840;SDS011;35738;49.890;5.930;2023-05-16T09:53:03;3.63;;;1.40;;
49840;SDS011;35738;49.890;5.930;2023-05-16T09:55:30;6.57;;;1.70;;
49840;SDS011;35738;49.890;5.930;2023-05-16T09:57:57;4.60;;;1.50;;
49840;SDS011;35738;49.890;5.930;2023-05-16T10:00:28;3.42;;;1.27;;
49840;SDS011;35738;49.890;5.930;2023-05-16T10:02:58;6.97;;;1.52;;
49840;SDS011;35738;49.890;5.930;2023-05-16T10:05:30;5.95;;;1.48;;
49840;SDS011;35738;49.890;5.930;2023-05-16T10:07:57;4.00;;;1.35;;
49840;SDS011;35738;49.890;5.930;2023-05-16T10:10:24;3.40;;;1.40;;
49840;SDS011;35738;49.890;5.930;2023-05-16T10:16:09;4.15;;;1.25;;
49840;SDS011;35738;49.890;5.930;2023-05-16T10:18:37;4.63;;;1.48;;
49840;SDS011;35738;49.890;5.930;2023-05-16T10:21:09;5.20;;;1.67;;
49840;SDS011;35738;49.890;5.930;2023-05-16T10:23:40;4.80;;;1.40;;
49840;SDS011;35738;49.890;5.930;2023-05-16T10:26:08;10.48;;;1.45;;
49840;SDS011;35738;49.890;5.930;2023-05-16T10:28:39;7.07;;;1.50;;
49840;SDS011;35738;49.890;5.930;2023-05-16T10:31:07;3.67;;;1.30;;
49840;SDS011;35738;49.890;5.930;2023-05-16T10:33:36;7.72;;;1.70;;
49840;SDS011;35738;49.890;5.930;2023-05-16T10:36:04;7.20;;;1.30;;
49840;SDS011;35738;49.890;5.930;2023-05-16T10:38:31;6.03;;;1.35;;
49840;SDS011;35738;49.890;5.930;2023-05-16T10:40:59;2.70;;;1.20;;
49840;SDS011;35738;49.890;5.930;2023-05-16T10:43:30;3.28;;;1.40;;
49840;SDS011;35738;49.890;5.930;2023-05-16T10:46:05;6.82;;;1.60;;
49840;SDS011;35738;49.890;5.930;2023-05-16T10:48:39;4.90;;;1.30;;
49840;SDS011;35738;49.890;5.930;2023-05-16T10:53:52;3.17;;;1.25;;
49840;SDS011;35738;49.890;5.930;2023-05-16T10:56:24;6.57;;;1.45;;
49840;SDS011;35738;49.890;5.930;2023-05-16T10:58:52;6.65;;;1.60;;
49840;SDS011;35738;49.890;5.930;2023-05-16T11:01:26;4.10;;;1.52;;
49840;SDS011;35738;49.890;5.930;2023-05-16T11:03:59;7.47;;;1.50;;
49840;SDS011;35738;49.890;5.930;2023-05-16T11:06:31;5.80;;;1.30;;
49840;SDS011;35738;49.890;5.930;2023-05-16T11:14:19;3.10;;;1.20;;
49840;SDS011;35738;49.890;5.930;2023-05-16T11:16:48;5.50;;;1.52;;
49840;SDS011;35738;49.890;5.930;2023-05-16T11:24:50;5.38;;;1.42;;
49840;SDS011;35738;49.890;5.930;2023-05-16T11:27:21;5.72;;;1.20;;
49840;SDS011;35738;49.890;5.930;2023-05-16T11:29:50;3.78;;;1.20;;
49840;SDS011;35738;49.890;5.930;2023-05-16T11:32:30;5.85;;;1.88;;
49840;SDS011;35738;49.890;5.930;2023-05-16T11:35:04;6.25;;;1.90;;
49840;SDS011;35738;49.890;5.930;2023-05-16T11:37:34;5.57;;;1.30;;
49840;SDS011;35738;49.890;5.930;2023-05-16T11:40:05;4.13;;;1.15;;
49840;SDS011;35738;49.890;5.930;2023-05-16T11:42:34;5.85;;;1.55;;
49840;SDS011;35738;49.890;5.930;2023-05-16T11:45:21;3.30;;;1.30;;
49840;SDS011;35738;49.890;5.930;2023-05-16T11:48:00;3.45;;;1.67;;
49840;SDS011;35738;49.890;5.930;2023-05-16T11:50:29;3.50;;;1.50;;
49840;SDS011;35738;49.890;5.930;2023-05-16T11:52:56;1.38;;;1.00;;
49840;SDS011;35738;49.890;5.930;2023-05-16T11:55:24;5.95;;;1.50;;
49840;SDS011;35738;49.890;5.930;2023-05-16T11:58:08;2.92;;;1.30;;
49840;SDS011;35738;49.890;5.930;2023-05-16T12:00:35;4.88;;;1.60;;
49840;SDS011;35738;49.890;5.930;2023-05-16T12:03:03;4.75;;;1.40;;
49840;SDS011;35738;49.890;5.930;2023-05-16T12:05:31;4.63;;;1.20;;
49840;SDS011;35738;49.890;5.930;2023-05-16T12:08:00;5.70;;;1.50;;
49840;SDS011;35738;49.890;5.930;2023-05-16T12:10:31;6.40;;;1.38;;
49840;SDS011;35738;49.890;5.930;2023-05-16T12:13:01;9.73;;;1.50;;
49840;SDS011;35738;49.890;5.930;2023-05-16T12:15:32;4.28;;;1.25;;
49840;SDS011;35738;49.890;5.930;2023-05-16T12:17:59;2.97;;;1.45;;
49840;SDS011;35738;49.890;5.930;2023-05-16T12:20:30;4.35;;;1.17;;
49840;SDS011;35738;49.890;5.930;2023-05-16T12:23:04;6.25;;;1.27;;
49840;SDS011;35738;49.890;5.930;2023-05-16T12:25:32;2.83;;;1.23;;
49840;SDS011;35738;49.890;5.930;2023-05-16T12:28:36;4.32;;;1.30;;
49840;SDS011;35738;49.890;5.930;2023-05-16T12:31:17;4.90;;;1.50;;
49840;SDS011;35738;49.890;5.930;2023-05-16T12:33:58;4.00;;;1.30;;
49840;SDS011;35738;49.890;5.930;2023-05-16T12:37:06;3.15;;;1.42;;
49840;SDS011;35738;49.890;5.930;2023-05-16T12:39:36;6.07;;;1.30;;
49840;SDS011;35738;49.890;5.930;2023-05-16T12:42:04;5.00;;;1.27;;
49840;SDS011;35738;49.890;5.930;2023-05-16T12:44:32;3.53;;;1.40;;
49840;SDS011;35738;49.890;5.930;2023-05-16T12:46:59;4.00;;;1.15;;
49840;SDS011;35738;49.890;5.930;2023-05-16T12:49:26;4.55;;;1.27;;
49840;SDS011;35738;49.890;5.930;2023-05-16T12:51:53;4.03;;;1.30;;
49840;SDS011;35738;49.890;5.930;2023-05-16T12:54:21;3.25;;;1.13;;
49840;SDS011;35738;49.890;5.930;2023-05-16T12:56:48;1.90;;;1.20;;
49840;SDS011;35738;49.890;5.930;2023-05-16T12:59:16;4.05;;;1.30;;
49840;SDS011;35738;49.890;5.930;2023-05-16T13:01:44;5.55;;;1.40;;
49840;SDS011;35738;49.890;5.930;2023-05-16T13:04:11;6.28;;;1.30;;
49840;SDS011;35738;49.890;5.930;2023-05-16T13:06:44;4.88;;;1.45;;
49840;SDS011;35738;49.890;5.930;2023-05-16T13:09:24;3.33;;;1.20;;
49840;SDS011;35738;49.890;5.930;2023-05-16T13:11:57;6.43;;;1.35;;
49840;SDS011;35738;49.890;5.930;2023-05-16T13:14:41;2.83;;;1.10;;
49840;SDS011;35738;49.890;5.930;2023-05-16T13:17:09;2.50;;;1.20;;
49840;SDS011;35738;49.890;5.930;2023-05-16T13:19:37;4.32;;;1.23;;
49840;SDS011;35738;49.890;5.930;2023-05-16T13:22:05;2.17;;;1.13;;
49840;SDS011;35738;49.890;5.930;2023-05-16T13:24:32;4.82;;;1.40;;
49840;SDS011;35738;49.890;5.930;2023-05-16T13:26:59;4.15;;;1.50;;
49840;SDS011;35738;49.890;5.930;2023-05-16T13:29:26;6.68;;;1.50;;
49840;SDS011;35738;49.890;5.930;2023-05-16T13:31:56;4.85;;;1.20;;
49840;SDS011;35738;49.890;5.930;2023-05-16T13:38:25;3.85;;;1.73;;
49840;SDS011;35738;49.890;5.930;2023-05-16T13:40:58;5.32;;;1.13;;
49840;SDS011;35738;49.890;5.930;2023-05-16T13:43:24;2.53;;;1.05;;
49840;SDS011;35738;49.890;5.930;2023-05-16T13:45:51;3.35;;;1.30;;
49840;SDS011;35738;49.890;5.930;2023-05-16T13:48:17;2.83;;;1.10;;
49840;SDS011;35738;49.890;5.930;2023-05-16T13:50:44;3.03;;;1.10;;
49840;SDS011;35738;49.890;5.930;2023-05-16T13:53:12;5.07;;;1.52;;
49840;SDS011;35738;49.890;5.930;2023-05-16T13:55:39;3.22;;;1.30;;
49840;SDS011;35738;49.890;5.930;2023-05-16T13:58:06;3.30;;;1.13;;
49840;SDS011;35738;49.890;5.930;2023-05-16T14:00:32;3.17;;;1.25;;
49840;SDS011;35738;49.890;5.930;2023-05-16T14:03:10;3.70;;;1.20;;
49840;SDS011;35738;49.890;5.930;2023-05-16T14:05:37;1.73;;;1.05;;
49840;SDS011;35738;49.890;5.930;2023-05-16T14:08:03;1.63;;;1.15;;
49840;SDS011;35738;49.890;5.930;2023-05-16T14:10:30;4.22;;;1.50;;
49840;SDS011;35738;49.890;5.930;2023-05-16T14:12:57;6.15;;;1.52;;
49840;SDS011;35738;49.890;5.930;2023-05-16T14:15:23;6.38;;;1.45;;
49840;SDS011;35738;49.890;5.930;2023-05-16T14:17:50;3.33;;;1.40;;
49840;SDS011;35738;49.890;5.930;2023-05-16T14:20:17;5.25;;;1.52;;
49840;SDS011;35738;49.890;5.930;2023-05-16T14:22:43;3.58;;;1.27;;
49840;SDS011;35738;49.890;5.930;2023-05-16T14:25:10;2.88;;;1.45;;
49840;SDS011;35738;49.890;5.930;2023-05-16T14:27:37;1.85;;;1.25;;
49840;SDS011;35738;49.890;5.930;2023-05-16T14:30:03;4.47;;;1.40;;
49840;SDS011;35738;49.890;5.930;2023-05-16T14:32:32;2.60;;;1.10;;
49840;SDS011;35738;49.890;5.930;2023-05-16T14:34:59;4.35;;;1.25;;
49840;SDS011;35738;49.890;5.930;2023-05-16T14:37:25;3.47;;;1.35;;
49840;SDS011;35738;49.890;5.930;2023-05-16T14:39:52;1.83;;;1.20;;
49840;SDS011;35738;49.890;5.930;2023-05-16T14:42:20;2.88;;;1.30;;
49840;SDS011;35738;49.890;5.930;2023-05-16T14:44:46;3.72;;;1.50;;
49840;SDS011;35738;49.890;5.930;2023-05-16T14:47:13;3.28;;;1.50;;
49840;SDS011;35738;49.890;5.930;2023-05-16T14:49:40;2.97;;;1.40;;
49840;SDS011;35738;49.890;5.930;2023-05-16T14:52:07;2.50;;;1.40;;
49840;SDS011;35738;49.890;5.930;2023-05-16T14:54:33;2.90;;;1.20;;
49840;SDS011;35738;49.890;5.930;2023-05-16T14:57:00;3.95;;;1.40;;
49840;SDS011;35738;49.890;5.930;2023-05-16T14:59:29;5.43;;;1.70;;
49840;SDS011;35738;49.890;5.930;2023-05-16T15:01:55;3.90;;;1.45;;
49840;SDS011;35738;49.890;5.930;2023-05-16T15:04:22;3.22;;;1.52;;
49840;SDS011;35738;49.890;5.930;2023-05-16T15:06:49;2.35;;;1.33;;
49840;SDS011;35738;49.890;5.930;2023-05-16T15:09:15;8.90;;;1.70;;
49840;SDS011;35738;49.890;5.930;2023-05-16T15:11:44;3.38;;;1.50;;
49840;SDS011;35738;49.890;5.930;2023-05-16T15:14:11;5.63;;;1.40;;
49840;SDS011;35738;49.890;5.930;2023-05-16T15:16:37;2.53;;;1.52;;
49840;SDS011;35738;49.890;5.930;2023-05-16T15:19:04;2.00;;;1.55;;
49840;SDS011;35738;49.890;5.930;2023-05-16T15:21:31;5.22;;;1.67;;
49840;SDS011;35738;49.890;5.930;2023-05-16T15:23:58;4.63;;;1.60;;
49840;SDS011;35738;49.890;5.930;2023-05-16T15:26:25;4.75;;;1.73;;
49840;SDS011;35738;49.890;5.930;2023-05-16T15:28:52;5.75;;;1.70;;
49840;SDS011;35738;49.890;5.930;2023-05-16T15:31:20;5.10;;;1.77;;
49840;SDS011;35738;49.890;5.930;2023-05-16T15:33:47;3.97;;;1.67;;
49840;SDS011;35738;49.890;5.930;2023-05-16T15:36:14;4.57;;;1.67;;
49840;SDS011;35738;49.890;5.930;2023-05-16T15:38:40;4.22;;;1.40;;
49840;SDS011;35738;49.890;5.930;2023-05-16T15:41:10;4.75;;;1.73;;
49840;SDS011;35738;49.890;5.930;2023-05-16T15:43:51;4.35;;;1.67;;
49840;SDS011;35738;49.890;5.930;2023-05-16T15:46:18;3.22;;;1.42;;
49840;SDS011;35738;49.890;5.930;2023-05-16T15:48:45;3.53;;;1.48;;
49840;SDS011;35738;49.890;5.930;2023-05-16T15:51:11;3.78;;;1.50;;
49840;SDS011;35738;49.890;5.930;2023-05-16T15:53:38;7.00;;;1.80;;
49840;SDS011;35738;49.890;5.930;2023-05-16T15:56:05;1.80;;;1.50;;
49840;SDS011;35738;49.890;5.930;2023-05-16T15:58:33;4.55;;;1.90;;
49840;SDS011;35738;49.890;5.930;2023-05-16T16:01:00;4.38;;;1.60;;
49840;SDS011;35738;49.890;5.930;2023-05-16T16:03:27;4.00;;;1.90;;
49840;SDS011;35738;49.890;5.930;2023-05-16T16:05:54;4.85;;;1.90;;
49840;SDS011;35738;49.890;5.930;2023-05-16T16:08:21;6.32;;;1.80;;
49840;SDS011;35738;49.890;5.930;2023-05-16T16:10:47;3.30;;;1.70;;
49840;SDS011;35738;49.890;5.930;2023-05-16T16:13:14;3.88;;;1.80;;
49840;SDS011;35738;49.890;5.930;2023-05-16T16:15:41;3.25;;;1.50;;
49840;SDS011;35738;49.890;5.930;2023-05-16T16:18:07;4.47;;;1.60;;
49840;SDS011;35738;49.890;5.930;2023-05-16T16:20:34;3.58;;;1.70;;
49840;SDS011;35738;49.890;5.930;2023-05-16T16:23:01;4.18;;;1.60;;
49840;SDS011;35738;49.890;5.930;2023-05-16T16:25:29;3.92;;;1.55;;
49840;SDS011;35738;49.890;5.930;2023-05-16T16:27:56;3.58;;;1.80;;
49840;SDS011;35738;49.890;5.930;2023-05-16T16:30:32;8.85;;;1.83;;
49840;SDS011;35738;49.890;5.930;2023-05-16T16:33:02;4.18;;;1.77;;
49840;SDS011;35738;49.890;5.930;2023-05-16T16:35:29;3.72;;;1.73;;
49840;SDS011;35738;49.890;5.930;2023-05-16T16:37:56;5.60;;;1.70;;
49840;SDS011;35738;49.890;5.930;2023-05-16T16:40:38;3.55;;;1.70;;